Time;durP1;ratioP1;P1;durP2;ratioP2;P2;SDS_P1;SDS_P2;PMS_P1;PMS_P2;Temp;Humidity;BMP_temperature;BMP_pressure;BME280_temperature;BME280_humidity;BME280_pressure;Samples;Min_cycle;Max_cycle;Signal;HPM_P1;HPM_P2
2022/07/01 00:01:27;;;;;;;;;2.67;1.00;;;;;16.31;62.44;101313.00;5098225;27;45704;-55
2022/07/01 00:03:53;;;;;;;;;1.00;1.00;;;;;16.28;62.41;101313.34;5098235;27;45331;-54
2022/07/01 00:06:19;;;;;;;;;2.33;0.00;;;;;16.27;62.39;101312.50;5095931;27;46397;-55
2022/07/01 00:08:45;;;;;;;;;0.00;0.00;;;;;16.25;62.77;101319.03;5098247;27;45442;-56
2022/07/01 00:11:11;;;;;;;;;1.00;1.00;;;;;16.23;62.66;101318.38;5097796;27;45321;-56
2022/07/01 00:13:36;;;;;;;;;1.00;1.00;;;;;16.21;62.69;101324.72;5098139;27;45517;-56
2022/07/01 00:16:01;;;;;;;;;0.67;0.67;;;;;16.16;62.97;101319.03;5097840;27;46209;-56
2022/07/01 00:18:27;;;;;;;;;0.67;0.33;;;;;16.16;62.56;101319.03;5097972;27;45402;-56
2022/07/01 00:20:52;;;;;;;;;0.00;0.00;;;;;16.08;63.08;101319.03;5096394;27;45451;-56
2022/07/01 00:23:19;;;;;;;;;1.00;1.00;;;;;16.11;63.31;101321.41;5097636;27;45488;-54
2022/07/01 00:25:46;;;;;;;;;0.00;0.00;;;;;16.12;63.00;101328.44;5097682;27;46149;-57
2022/07/01 00:28:11;;;;;;;;;2.00;0.00;;;;;16.00;63.24;101316.34;5097596;27;45233;-57
2022/07/01 00:30:37;;;;;;;;;0.00;0.00;;;;;16.08;63.18;101326.25;5097634;27;45425;-57
2022/07/01 00:33:03;;;;;;;;;1.00;0.00;;;;;16.06;63.48;101331.81;5097627;27;45351;-54
2022/07/01 00:35:28;;;;;;;;;0.33;0.33;;;;;15.99;63.40;101329.97;5097579;27;47043;-55
2022/07/01 00:37:53;;;;;;;;;1.33;1.33;;;;;15.95;63.33;101334.81;5097437;27;45331;-53
2022/07/01 00:40:19;;;;;;;;;0.00;0.00;;;;;15.96;62.84;101344.53;5097539;27;45264;-56
2022/07/01 00:42:44;;;;;;;;;1.00;1.00;;;;;15.90;63.41;101350.59;5097801;27;45263;-56
2022/07/01 00:45:10;;;;;;;;;0.33;0.33;;;;;15.87;63.52;101345.53;5097020;27;45981;-55
2022/07/01 00:47:37;;;;;;;;;2.67;0.67;;;;;15.78;63.85;101330.44;5097617;27;45391;-54
2022/07/01 00:50:11;;;;;;;;;2.00;0.33;;;;;15.70;63.37;101316.00;5097517;27;45499;-55
2022/07/01 00:52:38;;;;;;;;;1.00;1.00;;;;;15.73;63.85;101332.78;5097593;27;45385;-56
2022/07/01 00:55:07;;;;;;;;;2.00;1.00;;;;;15.78;64.07;101335.81;5096900;27;46362;-55
2022/07/01 00:57:35;;;;;;;;;1.67;1.67;;;;;15.77;63.59;101344.88;5097027;27;45397;-53
2022/07/01 01:00:08;;;;;;;;;1.00;1.00;;;;;15.71;64.41;101344.50;5096817;27;45408;-55
2022/07/01 01:02:34;;;;;;;;;1.67;1.00;;;;;15.74;64.27;101354.06;5097167;27;45436;-54
2022/07/01 01:05:02;;;;;;;;;2.00;2.00;;;;;15.61;64.55;101324.19;5096413;27;45857;-54
2022/07/01 01:07:28;;;;;;;;;2.00;1.00;;;;;15.73;64.67;101347.03;5097413;27;45391;-55
2022/07/01 01:09:54;;;;;;;;;0.50;0.00;;;;;15.73;64.60;101357.78;5097482;27;45403;-54
2022/07/01 01:12:20;;;;;;;;;1.33;1.33;;;;;15.73;64.85;101352.41;5096577;27;45284;-55
2022/07/01 01:14:50;;;;;;;;;1.00;1.00;;;;;15.46;64.70;101308.75;5097129;27;46132;-55
2022/07/01 01:17:17;;;;;;;;;3.00;1.00;;;;;15.38;64.94;101295.34;5096829;27;45780;-54
2022/07/01 01:19:43;;;;;;;;;1.00;1.00;;;;;15.74;65.00;101355.94;5096232;27;45370;-54
2022/07/01 01:22:10;;;;;;;;;0.67;0.67;;;;;15.75;64.92;101362.97;5097065;27;45394;-55
2022/07/01 01:24:36;;;;;;;;;2.00;0.00;;;;;15.70;65.09;101364.28;5096757;27;45444;-56
2022/07/01 01:27:06;;;;;;;;;3.00;1.33;;;;;15.74;65.14;101375.53;5095481;27;45396;-54
2022/07/01 01:29:34;;;;;;;;;1.00;1.00;;;;;15.62;65.46;101358.88;5097022;27;45338;-55
2022/07/01 01:32:00;;;;;;;;;1.67;1.67;;;;;15.73;64.78;101375.72;5097237;27;45476;-53
2022/07/01 01:34:26;;;;;;;;;4.00;1.00;;;;;15.43;65.16;101335.91;5096795;27;46182;-55
2022/07/01 01:36:51;;;;;;;;;0.67;0.00;;;;;15.65;65.23;101376.53;5096896;27;45441;-55
2022/07/01 01:39:17;;;;;;;;;1.00;1.00;;;;;15.63;65.29;101381.16;5078144;27;45450;-52
2022/07/01 01:41:44;;;;;;;;;2.00;2.00;;;;;15.52;64.96;101360.03;5097137;27;45440;-57
2022/07/01 01:44:09;;;;;;;;;1.00;1.00;;;;;15.58;65.62;101381.66;5095324;27;45407;-56
2022/07/01 01:46:36;;;;;;;;;2.00;2.00;;;;;15.45;65.65;101363.38;5096398;27;45360;-55
2022/07/01 01:49:02;;;;;;;;;1.00;1.00;;;;;15.55;65.45;101371.28;5096588;27;45495;-55
2022/07/01 01:51:28;;;;;;;;;2.33;1.33;;;;;15.53;65.74;101372.44;5095739;27;45613;-55
2022/07/01 01:53:54;;;;;;;;;3.00;1.00;;;;;15.15;64.95;101319.22;5096623;27;45677;-53
2022/07/01 01:56:20;;;;;;;;;3.33;2.00;;;;;15.27;66.04;101343.88;5096241;27;45379;-54
2022/07/01 01:58:45;;;;;;;;;1.00;1.00;;;;;15.42;66.37;101369.06;5095462;27;45463;-55
2022/07/01 02:01:12;;;;;;;;;2.00;2.00;;;;;15.45;66.42;101386.66;5095279;27;45610;-55
2022/07/01 02:03:39;;;;;;;;;3.33;2.33;;;;;15.37;66.36;101386.63;5096339;27;46120;-56
2022/07/01 02:06:06;;;;;;;;;1.00;1.00;;;;;15.13;66.67;101334.63;5096171;27;45236;-52
2022/07/01 02:08:31;;;;;;;;;1.33;1.00;;;;;15.45;65.92;101390.19;5096207;27;45476;-53
2022/07/01 02:10:59;;;;;;;;;1.33;1.33;;;;;15.04;65.68;101330.22;5095086;27;45454;-52
2022/07/01 02:13:25;;;;;;;;;1.67;1.00;;;;;15.44;66.59;101393.03;5095984;27;46166;-54
2022/07/01 02:15:51;;;;;;;;;1.67;1.00;;;;;15.32;66.62;101375.56;5094771;27;45404;-54
2022/07/01 02:18:17;;;;;;;;;2.33;1.00;;;;;15.44;67.04;101387.66;5095628;27;45198;-56
2022/07/01 02:20:43;;;;;;;;;1.00;1.00;;;;;15.44;66.70;101390.34;5096353;27;45355;-56
2022/07/01 02:23:09;;;;;;;;;3.33;2.00;;;;;15.44;66.84;101387.66;5095056;27;46054;-54
2022/07/01 02:25:34;;;;;;;;;1.67;1.00;;;;;15.44;66.56;101395.72;5098483;27;45224;-55
2022/07/01 02:28:00;;;;;;;;;1.33;1.33;;;;;15.31;66.33;101377.41;5099480;27;45416;-56
2022/07/01 02:30:26;;;;;;;;;1.67;1.33;;;;;15.35;66.76;101392.16;5099669;27;45434;-53
2022/07/01 02:32:52;;;;;;;;;1.67;1.00;;;;;15.36;66.99;101403.72;5098768;27;46070;-56
2022/07/01 02:35:17;;;;;;;;;4.00;1.00;;;;;15.27;67.00;101384.09;5098538;27;45408;-56
2022/07/01 02:37:43;;;;;;;;;3.00;1.00;;;;;15.39;66.79;101403.41;5099186;27;45400;-55
2022/07/01 02:40:09;;;;;;;;;1.00;1.00;;;;;15.37;66.91;101400.88;5099481;27;45399;-56
2022/07/01 02:42:35;;;;;;;;;2.00;0.33;;;;;15.41;66.99;101406.75;5098954;27;46356;-55
2022/07/01 02:45:05;;;;;;;;;1.00;1.00;;;;;15.39;66.77;101414.97;5098919;27;45477;-55
2022/07/01 02:47:38;;;;;;;;;3.00;1.00;;;;;15.39;66.42;101414.97;5099352;27;45340;-55
2022/07/01 02:50:06;;;;;;;;;2.00;2.00;;;;;15.37;66.88;101414.28;5099175;27;45385;-57
2022/07/01 02:52:34;;;;;;;;;1.67;1.67;;;;;15.41;67.31;101422.84;5098949;27;46369;-53
2022/07/01 02:55:10;;;;;;;;;1.67;1.67;;;;;15.39;66.80;101414.97;5098823;27;45421;-55
2022/07/01 02:57:36;;;;;;;;;1.00;1.00;;;;;15.40;66.96;101422.00;5098644;27;45308;-55
2022/07/01 03:00:05;;;;;;;;;2.00;0.67;;;;;15.40;66.99;101419.31;5099260;27;45357;-55
2022/07/01 03:02:31;;;;;;;;;1.00;1.00;;;;;15.40;66.66;101426.53;5098877;27;46723;-55
2022/07/01 03:04:57;;;;;;;;;1.33;1.33;;;;;15.37;66.47;101425.00;5098489;27;45610;-55
2022/07/01 03:07:22;;;;;;;;;2.33;1.33;;;;;15.39;66.59;101422.19;5098865;27;45726;-55
2022/07/01 03:09:48;;;;;;;;;2.00;2.00;;;;;15.35;66.21;101418.13;5098817;27;45626;-56
2022/07/01 03:12:25;;;;;;;;;1.33;1.00;;;;;15.39;65.75;101416.81;5098481;27;47133;-56
2022/07/01 03:15:05;;;;;;;;;1.33;1.33;;;;;15.28;66.20;101406.38;5098706;27;45344;-56
2022/07/01 03:17:32;;;;;;;;;1.33;1.00;;;;;15.34;66.28;101414.63;5098725;27;45469;-55
2022/07/01 03:19:59;;;;;;;;;1.00;1.00;;;;;15.35;66.07;101421.66;5098914;27;45413;-56
2022/07/01 03:22:28;;;;;;;;;2.00;1.00;;;;;15.33;65.84;101422.81;5098396;27;47198;-53
2022/07/01 03:24:54;;;;;;;;;1.00;1.00;;;;;15.34;65.30;101429.88;5098283;27;45292;-56
2022/07/01 03:27:20;;;;;;;;;1.00;0.33;;;;;15.33;65.40;101430.84;5098315;27;45416;-55
2022/07/01 03:29:46;;;;;;;;;1.00;1.00;;;;;15.31;65.49;101436.38;5099024;27;45758;-55
2022/07/01 03:32:11;;;;;;;;;1.00;1.00;;;;;15.30;65.33;101428.50;5098070;27;46378;-55
2022/07/01 03:34:38;;;;;;;;;2.67;1.67;;;;;15.19;65.41;101413.53;5098079;27;45433;-56
2022/07/01 03:37:08;;;;;;;;;2.00;1.00;;;;;15.30;65.17;101439.22;5097956;27;45441;-56
2022/07/01 03:39:35;;;;;;;;;2.00;0.33;;;;;15.26;65.35;101435.19;5098023;27;45436;-54
2022/07/01 03:42:01;;;;;;;;;1.00;0.33;;;;;15.29;65.57;101445.56;5097903;27;46170;-54
2022/07/01 03:44:27;;;;;;;;;1.00;1.00;;;;;15.30;65.56;101449.97;5098098;27;45443;-53
2022/07/01 03:46:53;;;;;;;;;2.00;2.00;;;;;15.28;65.64;101447.41;5098046;27;45433;-55
2022/07/01 03:49:18;;;;;;;;;1.33;1.33;;;;;15.16;65.51;101429.94;5098203;27;45444;-53
2022/07/01 03:51:43;;;;;;;;;1.67;1.67;;;;;15.13;65.55;101431.09;5097798;27;45360;-56
2022/07/01 03:56:53;;;;;;;;;1.00;1.00;;;;;15.28;65.13;101457.31;5097958;27;45503;-55
2022/07/01 03:59:18;;;;;;;;;2.00;2.00;;;;;15.26;64.96;101454.78;5097696;27;45509;-55
2022/07/01 04:01:43;;;;;;;;;1.33;1.33;;;;;15.21;65.02;101444.56;5097373;27;46743;-54
2022/07/01 04:04:09;;;;;;;;;2.00;2.00;;;;;15.09;64.65;101428.91;5097451;27;45464;-53
2022/07/01 04:06:35;;;;;;;;;1.00;1.00;;;;;15.24;64.81;101459.44;5097740;27;45478;-53
2022/07/01 04:09:00;;;;;;;;;1.00;1.00;;;;;15.23;64.80;101463.97;5097660;27;45313;-55
2022/07/01 04:11:26;;;;;;;;;3.00;1.67;;;;;15.10;64.86;101455.53;5097407;27;45366;-54
2022/07/01 04:13:52;;;;;;;;;2.00;1.33;;;;;15.17;64.69;101467.31;5097123;27;45355;-55
2022/07/01 04:16:18;;;;;;;;;2.00;2.00;;;;;15.15;64.96;101461.25;5097403;27;45497;-54
2022/07/01 04:18:44;;;;;;;;;2.67;1.67;;;;;15.18;64.90;101473.50;5097508;27;45491;-54
2022/07/01 04:23:53;;;;;;;;;2.00;1.00;;;;;15.17;64.63;101469.16;5097362;27;45469;-56
2022/07/01 04:26:19;;;;;;;;;3.67;2.00;;;;;15.17;65.40;101466.47;5097124;27;45415;-55
2022/07/01 04:28:44;;;;;;;;;4.67;2.33;;;;;15.17;65.06;101483.41;5097542;27;45363;-56
2022/07/01 04:31:09;;;;;;;;;4.67;3.00;;;;;15.18;65.26;101477.03;5096763;27;45410;-56
2022/07/01 04:33:35;;;;;;;;;5.00;2.00;;;;;15.19;65.42;101480.53;5097000;27;45378;-55
2022/07/01 04:36:00;;;;;;;;;1.67;1.67;;;;;15.19;65.38;101477.88;5097169;27;45536;-55
2022/07/01 04:38:25;;;;;;;;;5.33;4.00;;;;;15.17;65.16;101471.84;5097251;27;45805;-56
2022/07/01 04:43:35;;;;;;;;;2.00;2.00;;;;;15.20;65.49;101479.53;5096941;27;45407;-55
2022/07/01 04:46:00;;;;;;;;;3.67;2.33;;;;;15.11;65.07;101462.56;5096660;27;45722;-56
2022/07/01 04:48:25;;;;;;;;;5.00;3.33;;;;;15.21;65.42;101483.88;5096185;27;45439;-56
2022/07/01 04:50:50;;;;;;;;;4.67;3.00;;;;;15.21;65.39;101483.88;5096691;27;45510;-55
2022/07/01 04:53:16;;;;;;;;;1.33;1.33;;;;;15.21;65.30;101483.88;5096418;27;45449;-55
2022/07/01 04:55:41;;;;;;;;;4.00;1.00;;;;;15.22;65.52;101494.47;5096614;27;45384;-55
2022/07/01 04:58:07;;;;;;;;;2.00;2.00;;;;;15.23;65.28;101492.63;5096858;27;45318;-55
2022/07/01 05:00:32;;;;;;;;;4.67;2.67;;;;;15.22;65.21;101497.16;5096544;27;46089;-55
2022/07/01 05:02:58;;;;;;;;;4.00;2.67;;;;;15.21;65.08;101492.78;5096585;27;45375;-56
2022/07/01 05:05:23;;;;;;;;;1.00;1.00;;;;;15.23;65.02;101490.78;5096700;27;45770;-55
2022/07/01 05:07:48;;;;;;;;;2.67;2.00;;;;;15.26;64.71;101500.34;5096873;27;45433;-54
2022/07/01 05:10:14;;;;;;;;;2.33;1.00;;;;;15.25;64.93;101506.69;5096127;27;46088;-56
2022/07/01 05:12:39;;;;;;;;;2.00;1.67;;;;;15.25;64.81;101517.41;5096146;27;45465;-54
2022/07/01 05:15:06;;;;;;;;;1.00;1.00;;;;;15.25;64.43;101511.22;5096245;27;45829;-55
2022/07/01 05:23:00;;;;;;;;;1.67;1.00;;;;;15.27;64.42;101515.44;5095749;27;45335;-55
2022/07/01 05:25:26;;;;;;;;;1.33;1.33;;;;;14.93;64.11;101454.59;5096289;27;45477;-54
2022/07/01 05:27:51;;;;;;;;;2.67;1.00;;;;;15.26;63.69;101511.09;5096589;27;45425;-55
2022/07/01 05:30:16;;;;;;;;;0.33;0.33;;;;;15.27;63.53;101510.06;5095829;27;45294;-56
2022/07/01 05:32:42;;;;;;;;;0.33;0.33;;;;;15.29;63.86;101505.38;5095948;27;45503;-56
2022/07/01 05:35:07;;;;;;;;;1.33;0.67;;;;;15.29;63.70;101507.22;5095843;27;45406;-56
2022/07/01 05:37:32;;;;;;;;;1.00;1.00;;;;;15.34;63.58;101513.81;5096454;27;45361;-54
2022/07/01 05:39:58;;;;;;;;;3.00;1.00;;;;;15.37;63.36;101513.47;5095712;27;46381;-56
2022/07/01 05:42:23;;;;;;;;;3.00;1.00;;;;;15.39;63.04;101514.16;5095934;27;45358;-56
2022/07/01 05:44:49;;;;;;;;;1.00;1.00;;;;;15.42;63.14;101513.00;5096026;27;45479;-55
2022/07/01 05:47:14;;;;;;;;;3.00;1.00;;;;;15.43;62.85;101517.38;5095886;27;45312;-56
2022/07/01 05:49:39;;;;;;;;;0.33;0.33;;;;;15.43;63.02;101515.53;5095988;27;46115;-55
2022/07/01 05:52:05;;;;;;;;;1.00;1.00;;;;;15.47;62.86;101519.56;5095728;27;45384;-54
2022/07/01 05:54:30;;;;;;;;;0.00;0.00;;;;;15.46;62.77;101514.34;5095889;27;45556;-57
2022/07/01 05:56:56;;;;;;;;;1.00;1.00;;;;;15.53;62.62;101515.41;5095748;27;45488;-56
2022/07/01 05:59:21;;;;;;;;;1.00;1.00;;;;;15.51;62.05;101511.22;5095642;27;45941;-55
2022/07/01 06:01:47;;;;;;;;;3.00;1.67;;;;;15.58;62.26;101526.47;5095992;27;45348;-56
2022/07/01 06:04:12;;;;;;;;;2.00;0.67;;;;;15.62;62.21;101514.44;5095511;27;45539;-56
2022/07/01 06:06:38;;;;;;;;;2.00;0.00;;;;;15.66;62.24;101523.03;5095720;27;45497;-55
2022/07/01 06:09:03;;;;;;;;;2.00;0.00;;;;;15.68;62.10;101526.41;5095393;27;45406;-57
2022/07/01 06:11:28;;;;;;;;;2.00;1.00;;;;;15.74;61.84;101532.97;5095578;27;45450;-55
2022/07/01 06:13:54;;;;;;;;;1.67;1.67;;;;;15.79;61.66;101531.47;5095458;27;45422;-57
2022/07/01 06:16:19;;;;;;;;;2.00;1.00;;;;;15.83;61.41;101526.63;5095757;27;45516;-56
2022/07/01 06:18:44;;;;;;;;;0.00;0.00;;;;;15.85;60.56;101532.69;5095684;27;46033;-55
2022/07/01 06:21:10;;;;;;;;;1.33;1.33;;;;;15.83;60.46;101527.47;5095138;27;45584;-55
2022/07/01 06:23:35;;;;;;;;;2.00;0.33;;;;;15.95;60.01;101533.38;5095624;27;45453;-55
2022/07/01 06:26:01;;;;;;;;;3.33;1.67;;;;;16.01;59.74;101535.41;5095721;27;45244;-55
2022/07/01 06:28:29;;;;;;;;;1.00;1.00;;;;;16.01;59.72;101527.34;5093454;27;46008;-56
2022/07/01 06:30:55;;;;;;;;;3.00;1.00;;;;;16.14;59.31;101532.28;5095117;27;45434;-55
2022/07/01 06:33:21;;;;;;;;;0.00;0.00;;;;;16.25;58.73;101533.78;5091908;27;45533;-55
2022/07/01 06:35:46;;;;;;;;;1.33;0.00;;;;;16.38;58.61;101534.16;5091670;27;45580;-56
2022/07/01 06:38:11;;;;;;;;;3.00;1.00;;;;;16.60;57.89;101536.22;5095150;27;45428;-56
2022/07/01 06:40:37;;;;;;;;;2.00;0.00;;;;;16.92;57.18;101530.00;5094938;27;45561;-55
2022/07/01 06:43:02;;;;;;;;;0.00;0.00;;;;;17.43;56.68;101537.84;5095160;27;45491;-57
2022/07/01 06:45:28;;;;;;;;;3.00;1.00;;;;;18.09;56.69;101539.28;5095316;27;45349;-55
2022/07/01 06:47:53;;;;;;;;;1.00;1.00;;;;;18.80;53.16;101531.09;5095125;27;45790;-56
2022/07/01 06:50:18;;;;;;;;;2.67;0.00;;;;;19.67;51.44;101534.91;5095124;27;45461;-55
2022/07/01 06:52:44;;;;;;;;;1.00;1.00;;;;;20.51;49.12;101533.63;5095223;27;45549;-55
2022/07/01 06:55:09;;;;;;;;;2.00;1.50;;;;;21.37;48.25;101534.38;5095171;27;45620;-55
2022/07/01 06:57:34;;;;;;;;;0.00;0.00;;;;;22.16;44.97;101529.38;5094804;27;45452;-55
2022/07/01 07:00:00;;;;;;;;;2.00;1.00;;;;;22.95;43.84;101535.94;5095043;27;45409;-56
2022/07/01 07:02:25;;;;;;;;;1.00;1.00;;;;;23.64;41.72;101529.16;5095148;27;45804;-57
2022/07/01 07:04:54;;;;;;;;;0.00;0.00;;;;;24.32;39.51;101534.09;5095096;27;45394;-54
2022/07/01 07:07:19;;;;;;;;;2.40;1.00;;;;;24.97;38.20;101531.13;5094640;27;45426;-55
2022/07/01 07:09:44;;;;;;;;;2.75;1.25;;;;;25.64;38.06;101532.16;5094596;27;45472;-56
2022/07/01 07:12:10;;;;;;;;;0.75;0.75;;;;;26.29;35.94;101534.25;5098486;27;45397;-56
2022/07/01 07:14:35;;;;;;;;;0.00;0.00;;;;;27.00;34.87;101527.91;5098502;27;45799;-56
2022/07/01 07:17:01;;;;;;;;;1.00;1.00;;;;;27.83;33.87;101528.69;5098935;27;46442;-57
2022/07/01 07:19:26;;;;;;;;;2.00;0.00;;;;;28.69;31.67;101521.25;5098576;27;45582;-54
2022/07/01 07:21:51;;;;;;;;;0.00;0.00;;;;;29.94;34.04;101520.88;5098487;27;45492;-53
2022/07/01 07:24:17;;;;;;;;;2.00;0.25;;;;;31.71;28.72;101520.63;5098096;27;45499;-56
2022/07/01 07:26:42;;;;;;;;;0.25;0.25;;;;;33.54;26.73;101516.31;5098220;27;46922;-56
2022/07/01 07:29:08;;;;;;;;;0.00;0.00;;;;;34.84;23.15;101505.78;5098199;27;45410;-56
2022/07/01 07:31:34;;;;;;;;;1.00;0.20;;;;;36.14;24.78;101518.66;5098088;27;45556;-57
2022/07/01 07:33:59;;;;;;;;;0.25;0.25;;;;;37.31;20.64;101516.63;5098549;27;45358;-57
2022/07/01 07:36:24;;;;;;;;;1.00;0.00;;;;;38.23;20.25;101513.84;5097826;27;46396;-55
2022/07/01 07:38:50;;;;;;;;;2.00;0.00;;;;;39.19;19.94;101516.09;5098346;27;45418;-57
2022/07/01 07:41:15;;;;;;;;;0.00;0.00;;;;;40.10;17.59;101518.09;5097755;27;45322;-57
2022/07/01 07:43:40;;;;;;;;;0.00;0.00;;;;;40.74;17.15;101508.19;5098373;27;45499;-55
2022/07/01 07:46:06;;;;;;;;;0.00;0.00;;;;;41.50;16.27;101515.75;5097892;27;45714;-54
2022/07/01 07:48:31;;;;;;;;;0.00;0.00;;;;;42.17;17.23;101516.75;5097762;27;45449;-55
2022/07/01 07:50:56;;;;;;;;;0.00;0.00;;;;;42.71;16.62;101511.97;5097559;27;45477;-52
2022/07/01 07:53:22;;;;;;;;;0.75;0.00;;;;;43.22;14.78;101523.72;5098080;27;45377;-54
2022/07/01 07:55:47;;;;;;;;;0.00;0.00;;;;;43.53;16.53;101527.91;5097756;27;45338;-54
2022/07/01 07:58:12;;;;;;;;;1.00;0.25;;;;;43.92;15.99;101525.53;5097366;27;45327;-54
2022/07/01 08:00:38;;;;;;;;;0.00;0.00;;;;;44.25;13.57;101517.72;5097764;27;45841;-55
2022/07/01 08:03:03;;;;;;;;;0.00;0.00;;;;;44.30;13.49;101523.06;5097747;27;45418;-56
2022/07/01 08:05:28;;;;;;;;;0.00;0.00;;;;;44.52;13.30;101532.06;5097521;27;46260;-55
2022/07/01 08:07:54;;;;;;;;;0.00;0.00;;;;;44.90;13.91;101530.69;5097506;27;45423;-56
2022/07/01 08:10:19;;;;;;;;;0.00;0.00;;;;;45.18;12.17;101533.41;5097727;27;45505;-56
2022/07/01 08:12:44;;;;;;;;;1.25;0.00;;;;;44.86;14.77;101529.78;5097600;27;45569;-56
2022/07/01 08:15:10;;;;;;;;;1.00;0.00;;;;;45.34;12.34;101524.94;5096726;27;45971;-54
2022/07/01 08:17:35;;;;;;;;;0.00;0.00;;;;;45.67;11.85;101527.34;5097463;27;45527;-55
2022/07/01 08:20:00;;;;;;;;;0.25;0.00;;;;;46.04;11.95;101531.38;5097515;27;45285;-55
2022/07/01 08:22:26;;;;;;;;;0.25;0.00;;;;;46.38;11.67;101545.75;5097962;27;45537;-55
2022/07/01 08:24:51;;;;;;;;;0.00;0.00;;;;;46.61;11.31;101534.56;5097325;27;45981;-56
2022/07/01 08:27:17;;;;;;;;;0.00;0.00;;;;;46.92;12.21;101529.84;5096981;27;45482;-56
2022/07/01 08:29:42;;;;;;;;;0.00;0.00;;;;;47.37;11.64;101534.66;5097319;27;45814;-56
2022/07/01 08:32:08;;;;;;;;;0.00;0.00;;;;;47.59;10.25;101534.97;5097348;27;45434;-55
2022/07/01 08:34:35;;;;;;;;;0.40;0.00;;;;;47.95;11.62;101539.88;5096957;27;45441;-56
2022/07/01 08:37:01;;;;;;;;;0.00;0.00;;;;;48.16;10.89;101545.00;5096157;27;45468;-55
2022/07/01 08:39:26;;;;;;;;;0.80;0.00;;;;;48.30;11.48;101547.19;5097353;27;45465;-56
2022/07/01 08:41:52;;;;;;;;;0.00;0.00;;;;;48.46;10.78;101544.13;5097051;27;45322;-57
2022/07/01 08:44:17;;;;;;;;;1.75;0.00;;;;;48.62;10.05;101543.91;5096528;27;47133;-56
2022/07/01 08:46:43;;;;;;;;;0.50;0.50;;;;;48.86;10.12;101548.19;5096983;27;45423;-55
2022/07/01 08:49:08;;;;;;;;;0.00;0.00;;;;;48.92;9.91;101547.41;5096622;27;45393;-56
2022/07/01 08:51:33;;;;;;;;;0.50;0.00;;;;;49.00;9.85;101545.47;5097113;27;45516;-57
2022/07/01 08:53:59;;;;;;;;;2.50;0.00;;;;;49.24;10.98;101557.38;5096700;27;46141;-56
2022/07/01 08:56:44;;;;;;;;;0.00;0.00;;;;;49.24;9.89;101557.38;5096656;27;45341;-55
2022/07/01 08:59:12;;;;;;;;;0.40;0.00;;;;;49.28;9.24;101556.19;5096036;27;45479;-56
2022/07/01 09:01:38;;;;;;;;;0.40;0.20;;;;;49.57;9.81;101562.88;5096832;27;45579;-55
2022/07/01 09:04:18;;;;;;;;;1.75;0.00;;;;;49.70;9.56;101561.31;5095967;27;47296;-58
2022/07/01 09:06:45;;;;;;;;;0.00;0.00;;;;;49.86;9.46;101568.72;5096663;27;45367;-57
2022/07/01 09:09:21;;;;;;;;;0.00;0.00;;;;;50.01;9.38;101561.88;5094877;27;45400;-57
2022/07/01 09:11:53;;;;;;;;;0.00;0.00;;;;;50.17;10.80;101567.22;5096694;27;45420;-56
2022/07/01 09:14:22;;;;;;;;;0.00;0.00;;;;;50.21;8.88;101567.25;5096149;27;46209;-57
2022/07/01 09:16:51;;;;;;;;;0.00;0.00;;;;;50.10;9.33;101562.31;5096676;27;45424;-56
2022/07/01 09:19:19;;;;;;;;;0.00;0.00;;;;;50.15;9.43;101569.59;5096347;27;45461;-56
2022/07/01 09:22:01;;;;;;;;;0.00;0.00;;;;;49.33;10.48;101563.50;5096680;27;45346;-55
2022/07/01 09:24:30;;;;;;;;;0.20;0.00;;;;;49.46;9.54;101561.97;5096490;27;45461;-56
2022/07/01 09:27:13;;;;;;;;;0.00;0.00;;;;;48.62;9.77;101564.47;5095612;27;45427;-57
2022/07/01 09:29:48;;;;;;;;;1.60;0.00;;;;;46.58;10.56;101577.53;5095728;27;45320;-56
2022/07/01 09:32:18;;;;;;;;;0.00;0.00;;;;;46.14;11.15;101568.53;5096450;27;45423;-55
2022/07/01 09:34:45;;;;;;;;;0.00;0.00;;;;;45.08;11.99;101579.69;5095657;27;45440;-56
2022/07/01 09:37:14;;;;;;;;;0.40;0.00;;;;;44.86;11.68;101571.88;5095759;27;45396;-56
2022/07/01 09:39:47;;;;;;;;;0.00;0.00;;;;;42.08;14.06;101572.75;5095411;27;45358;-55
2022/07/01 09:42:14;;;;;;;;;0.80;0.00;;;;;39.55;15.80;101577.13;5095988;27;45422;-55
2022/07/01 09:45:02;;;;;;;;;0.00;0.00;;;;;37.24;17.16;101576.44;5095421;27;46406;-55
2022/07/01 09:47:29;;;;;;;;;0.00;0.00;;;;;36.15;17.61;101584.00;5096096;27;45500;-55
2022/07/01 09:49:55;;;;;;;;;0.00;0.00;;;;;35.84;17.66;101584.41;5095236;27;45483;-56
2022/07/01 09:52:21;;;;;;;;;0.80;0.00;;;;;36.96;17.59;101584.72;5096060;27;45390;-56
2022/07/01 09:54:48;;;;;;;;;0.00;0.00;;;;;36.69;17.05;101572.38;5095795;27;45844;-55
2022/07/01 09:57:14;;;;;;;;;0.40;0.00;;;;;38.09;16.73;101567.47;5095529;27;45607;-55
2022/07/01 09:59:39;;;;;;;;;0.00;0.00;;;;;36.95;16.65;101571.97;5094764;27;45375;-55
2022/07/01 10:02:07;;;;;;;;;0.25;0.25;;;;;38.60;15.98;101580.22;5096047;27;45416;-57
2022/07/01 10:04:36;;;;;;;;;0.00;0.00;;;;;40.59;15.67;101580.09;5095804;27;46236;-55
2022/07/01 10:07:16;;;;;;;;;0.00;0.00;;;;;42.26;13.94;101581.84;5095559;27;45534;-55
2022/07/01 10:10:04;;;;;;;;;1.00;1.00;;;;;43.16;13.48;101569.91;5095753;27;45449;-56
2022/07/01 10:12:51;;;;;;;;;0.00;0.00;;;;;40.67;14.50;101566.44;5095901;27;45374;-55
2022/07/01 10:15:19;;;;;;;;;3.00;0.00;;;;;40.09;14.82;101558.25;5095154;27;45706;-55
2022/07/01 10:17:46;;;;;;;;;2.60;0.00;;;;;37.77;16.08;101573.19;5095636;27;45457;-56
2022/07/01 10:20:14;;;;;;;;;0.00;0.00;;;;;38.67;16.60;101575.00;5095731;27;45389;-56
2022/07/01 10:22:40;;;;;;;;;0.00;0.00;;;;;40.61;14.95;101574.19;5095634;27;45521;-57
2022/07/01 10:25:38;;;;;;;;;0.00;0.00;;;;;42.15;14.00;101570.22;5095371;27;45923;-55
2022/07/01 10:28:23;;;;;;;;;0.00;0.00;;;;;43.19;13.69;101574.81;5094693;27;45338;-55
2022/07/01 10:30:55;;;;;;;;;0.00;0.00;;;;;43.43;12.85;101576.78;5095758;27;45445;-55
2022/07/01 10:33:46;;;;;;;;;0.00;0.00;;;;;43.16;12.94;101563.50;5095560;27;45433;-56
2022/07/01 10:36:19;;;;;;;;;1.00;0.00;;;;;41.94;13.59;101575.00;5095252;27;45711;-57
2022/07/01 10:39:06;;;;;;;;;1.60;0.00;;;;;39.71;15.29;101574.75;5093997;27;45414;-56
2022/07/01 10:41:38;;;;;;;;;0.00;0.00;;;;;38.79;15.74;101581.97;5095713;27;45465;-55
2022/07/01 10:44:06;;;;;;;;;0.00;0.00;;;;;38.21;16.01;101569.69;5094518;27;45450;-56
2022/07/01 10:46:57;;;;;;;;;0.00;0.00;;;;;37.29;16.97;101576.34;5098089;27;47005;-55
2022/07/01 10:49:35;;;;;;;;;1.40;0.20;;;;;34.93;18.36;101575.94;5099185;27;45440;-58
2022/07/01 10:52:00;;;;;;;;;0.00;0.00;;;;;33.00;20.23;101583.16;5099130;27;45449;-57
2022/07/01 10:54:43;;;;;;;;;0.00;0.00;;;;;31.69;21.53;101590.75;5098087;27;45515;-54
2022/07/01 10:57:19;;;;;;;;;1.80;0.00;;;;;31.40;21.96;101577.44;5098606;27;46017;-55
2022/07/01 10:59:59;;;;;;;;;0.40;0.00;;;;;31.11;22.25;101581.59;5098760;27;45303;-54
2022/07/01 11:02:38;;;;;;;;;1.80;0.00;;;;;30.50;22.11;101584.59;5099225;27;45489;-55
2022/07/01 11:05:09;;;;;;;;;0.80;0.00;;;;;30.23;23.21;101584.63;5098935;27;45454;-55
2022/07/01 11:07:38;;;;;;;;;0.00;0.00;;;;;29.83;23.49;101580.25;5098544;27;46527;-55
2022/07/01 11:10:06;;;;;;;;;0.00;0.00;;;;;29.25;23.63;101587.13;5098632;27;45323;-56
2022/07/01 11:12:32;;;;;;;;;1.40;1.00;;;;;28.39;24.62;101561.81;5098945;27;45458;-54
2022/07/01 11:15:01;;;;;;;;;0.60;0.60;;;;;27.88;26.15;101594.41;5098334;27;45544;-54
2022/07/01 11:17:26;;;;;;;;;2.00;2.00;;;;;27.24;26.42;101596.25;5097914;27;45697;-56
2022/07/01 11:19:56;;;;;;;;;0.00;0.00;;;;;26.70;27.92;101600.84;5098592;27;45343;-53
2022/07/01 11:22:26;;;;;;;;;1.40;1.00;;;;;26.13;27.89;101569.31;5098459;27;45447;-53
2022/07/01 11:24:58;;;;;;;;;0.60;0.60;;;;;25.83;28.74;101579.31;5098694;27;45410;-53
2022/07/01 11:27:24;;;;;;;;;0.00;0.00;;;;;25.71;29.12;101598.31;5098423;27;46267;-54
2022/07/01 11:29:55;;;;;;;;;6.40;4.00;;;;;25.72;28.97;101596.41;5098320;27;45489;-55
2022/07/01 11:32:31;;;;;;;;;2.20;2.20;;;;;25.92;28.02;101583.44;5098729;27;45470;-54
2022/07/01 11:34:59;;;;;;;;;1.00;1.00;;;;;26.41;28.27;101584.25;5098491;27;45594;-54
2022/07/01 11:40:15;;;;;;;;;3.00;3.00;;;;;26.66;27.55;101573.19;5098051;27;45300;-54
2022/07/01 11:42:41;;;;;;;;;3.60;1.00;;;;;26.79;27.54;101586.63;5098417;27;45573;-54
2022/07/01 11:45:07;;;;;;;;;1.00;1.00;;;;;26.71;27.23;101576.03;5098280;27;45249;-55